sensor_id;sensor_type;location;lat;lon;timestamp;pressure;altitude;pressure_sealevel;temperature;humidity
18509;BME280;9383;50.928;12.116;2023-02-22T00:00:44;98930.22;;;8.40;93.00
18509;BME280;9383;50.928;12.116;2023-02-22T00:03:22;98929.34;;;8.39;93.07
18509;BME280;9383;50.928;12.116;2023-02-22T00:05:56;98927.63;;;8.38;93.19
18509;BME280;9383;50.928;12.116;2023-02-22T00:08:28;98920.59;;;8.37;93.25
18509;BME280;9383;50.928;12.116;2023-02-22T00:10:59;98917.97;;;8.37;93.45
18509;BME280;9383;50.928;12.116;2023-02-22T00:13:27;98912.69;;;8.37;93.31
18509;BME280;9383;50.928;12.116;2023-02-22T00:15:57;98908.31;;;8.36;93.46
18509;BME280;9383;50.928;12.116;2023-02-22T00:18:24;98907.47;;;8.36;93.39
18509;BME280;9383;50.928;12.116;2023-02-22T00:20:59;98907.47;;;8.34;93.60
18509;BME280;9383;50.928;12.116;2023-02-22T00:23:27;98912.75;;;8.34;93.80
18509;BME280;9383;50.928;12.116;2023-02-22T00:25:56;98916.31;;;8.33;93.75
18509;BME280;9383;50.928;12.116;2023-02-22T00:28:23;98916.31;;;8.33;93.80
18509;BME280;9383;50.928;12.116;2023-02-22T00:30:50;98913.75;;;8.30;93.88
18509;BME280;9383;50.928;12.116;2023-02-22T00:33:17;98898.78;;;8.30;93.82
18509;BME280;9383;50.928;12.116;2023-02-22T00:35:44;98906.75;;;8.29;93.88
18509;BME280;9383;50.928;12.116;2023-02-22T00:38:13;98900.59;;;8.28;94.15
18509;BME280;9383;50.928;12.116;2023-02-22T00:40:40;98903.25;;;8.27;94.58
18509;BME280;9383;50.928;12.116;2023-02-22T00:43:07;98901.59;;;8.24;94.75
18509;BME280;9383;50.928;12.116;2023-02-22T00:45:34;98904.22;;;8.24;94.71
18509;BME280;9383;50.928;12.116;2023-02-22T00:48:03;98898.94;;;8.24;94.60
18509;BME280;9383;50.928;12.116;2023-02-22T00:50:31;98910.41;;;8.23;94.65
18509;BME280;9383;50.928;12.116;2023-02-22T00:52:59;98898.13;;;8.22;94.76
18509;BME280;9383;50.928;12.116;2023-02-22T00:55:29;98895.47;;;8.22;94.65
18509;BME280;9383;50.928;12.116;2023-02-22T00:57:56;98898.16;;;8.21;94.55
18509;BME280;9383;50.928;12.116;2023-02-22T01:00:29;98898.16;;;8.21;94.71
18509;BME280;9383;50.928;12.116;2023-02-22T01:02:56;98892.91;;;8.19;94.95
18509;BME280;9383;50.928;12.116;2023-02-22T01:05:26;98892.03;;;8.19;95.29
18509;BME280;9383;50.928;12.116;2023-02-22T01:07:53;98888.53;;;8.18;95.30
18509;BME280;9383;50.928;12.116;2023-02-22T01:10:23;98875.38;;;8.16;95.48
18509;BME280;9383;50.928;12.116;2023-02-22T01:12:50;98884.22;;;8.15;95.32
18509;BME280;9383;50.928;12.116;2023-02-22T01:15:20;98891.22;;;8.16;95.17
18509;BME280;9383;50.928;12.116;2023-02-22T01:17:48;98884.22;;;8.15;95.27
18509;BME280;9383;50.928;12.116;2023-02-22T01:20:16;98885.09;;;8.14;95.38
18509;BME280;9383;50.928;12.116;2023-02-22T01:22:48;98883.34;;;8.13;95.32
18509;BME280;9383;50.928;12.116;2023-02-22T01:25:21;98873.69;;;8.14;95.37
18509;BME280;9383;50.928;12.116;2023-02-22T01:27:49;98862.31;;;8.12;95.31
18509;BME280;9383;50.928;12.116;2023-02-22T01:30:21;98866.69;;;8.11;95.33
18509;BME280;9383;50.928;12.116;2023-02-22T01:32:48;98868.50;;;8.09;95.17
18509;BME280;9383;50.928;12.116;2023-02-22T01:35:24;98859.72;;;8.09;95.09
18509;BME280;9383;50.928;12.116;2023-02-22T01:37:51;98859.78;;;8.07;95.02
18509;BME280;9383;50.928;12.116;2023-02-22T01:40:28;98859.78;;;8.07;95.38
18509;BME280;9383;50.928;12.116;2023-02-22T01:42:57;98862.41;;;8.07;94.98
18509;BME280;9383;50.928;12.116;2023-02-22T01:50:59;98852.78;;;8.05;95.11
18509;BME280;9383;50.928;12.116;2023-02-22T01:53:33;98853.69;;;8.03;95.02
18509;BME280;9383;50.928;12.116;2023-02-22T01:56:00;98852.84;;;8.03;95.09
18509;BME280;9383;50.928;12.116;2023-02-22T01:58:30;98847.59;;;8.01;95.23
18509;BME280;9383;50.928;12.116;2023-02-22T02:00:58;98846.72;;;8.01;95.10
18509;BME280;9383;50.928;12.116;2023-02-22T02:03:28;98850.25;;;8.01;95.22
18509;BME280;9383;50.928;12.116;2023-02-22T02:05:59;98840.59;;;8.00;95.15
18509;BME280;9383;50.928;12.116;2023-02-22T02:08:43;98845.00;;;8.00;95.32
18509;BME280;9383;50.928;12.116;2023-02-22T02:11:18;98837.97;;;7.99;95.29
18509;BME280;9383;50.928;12.116;2023-02-22T02:13:45;98838.03;;;7.97;95.38
18509;BME280;9383;50.928;12.116;2023-02-22T02:16:11;98837.16;;;7.97;95.63
18509;BME280;9383;50.928;12.116;2023-02-22T02:18:38;98842.44;;;7.97;95.98
18509;BME280;9383;50.928;12.116;2023-02-22T02:32:15;98827.53;;;7.94;96.11
18509;BME280;9383;50.928;12.116;2023-02-22T02:34:49;98824.97;;;7.93;96.17
18509;BME280;9383;50.928;12.116;2023-02-22T02:43:10;98824.06;;;7.92;96.49
18509;BME280;9383;50.928;12.116;2023-02-22T02:46:00;98820.59;;;7.92;96.44
18509;BME280;9383;50.928;12.116;2023-02-22T02:48:32;98811.81;;;7.89;96.51
18509;BME280;9383;50.928;12.116;2023-02-22T02:51:01;98817.97;;;7.90;96.81
18509;BME280;9383;50.928;12.116;2023-02-22T02:53:38;98813.59;;;7.89;97.32
18509;BME280;9383;50.928;12.116;2023-02-22T02:56:05;98818.88;;;7.89;97.36
18509;BME280;9383;50.928;12.116;2023-02-22T02:58:32;98810.09;;;7.88;97.37
18509;BME280;9383;50.928;12.116;2023-02-22T03:01:01;98757.31;;;7.55;97.27
18509;BME280;9383;50.928;12.116;2023-02-22T03:04:02;98809.25;;;7.88;97.12
18509;BME280;9383;50.928;12.116;2023-02-22T03:06:48;98811.88;;;7.88;97.27
18509;BME280;9383;50.928;12.116;2023-02-22T03:09:54;98803.97;;;7.88;96.90
18509;BME280;9383;50.928;12.116;2023-02-22T03:12:48;98804.88;;;7.87;97.09
18509;BME280;9383;50.928;12.116;2023-02-22T03:15:30;98808.34;;;7.87;97.13
18509;BME280;9383;50.928;12.116;2023-02-22T03:18:05;98804.88;;;7.87;96.96
18509;BME280;9383;50.928;12.116;2023-02-22T03:20:54;98803.13;;;7.86;96.95
18509;BME280;9383;50.928;12.116;2023-02-22T03:23:42;98806.69;;;7.85;97.01
18509;BME280;9383;50.928;12.116;2023-02-22T03:26:20;98807.53;;;7.85;96.88
18509;BME280;9383;50.928;12.116;2023-02-22T03:28:51;98804.97;;;7.84;96.86
18509;BME280;9383;50.928;12.116;2023-02-22T03:31:28;98812.00;;;7.83;96.81
18509;BME280;9383;50.928;12.116;2023-02-22T03:34:10;98808.47;;;7.83;97.03
18509;BME280;9383;50.928;12.116;2023-02-22T03:36:47;98804.97;;;7.82;97.25
18509;BME280;9383;50.928;12.116;2023-02-22T03:39:16;98811.09;;;7.83;97.15
18509;BME280;9383;50.928;12.116;2023-02-22T03:41:47;98806.75;;;7.82;97.30
18509;BME280;9383;50.928;12.116;2023-02-22T03:44:20;98813.75;;;7.83;97.37
18509;BME280;9383;50.928;12.116;2023-02-22T03:46:51;98814.66;;;7.82;97.43
18509;BME280;9383;50.928;12.116;2023-02-22T03:51:51;98806.75;;;7.82;97.30
18509;BME280;9383;50.928;12.116;2023-02-22T03:54:17;98812.03;;;7.82;97.62
18509;BME280;9383;50.928;12.116;2023-02-22T03:56:56;98803.19;;;7.83;97.58
18509;BME280;9383;50.928;12.116;2023-02-22T03:59:24;98800.63;;;7.81;97.63
18509;BME280;9383;50.928;12.116;2023-02-22T04:01:57;98805.88;;;7.81;97.54
18509;BME280;9383;50.928;12.116;2023-02-22T04:04:24;98805.88;;;7.81;97.56
18509;BME280;9383;50.928;12.116;2023-02-22T04:06:51;98806.75;;;7.82;97.56
18509;BME280;9383;50.928;12.116;2023-02-22T04:09:18;98803.25;;;7.81;97.74
18509;BME280;9383;50.928;12.116;2023-02-22T04:11:45;98806.81;;;7.80;98.00
18509;BME280;9383;50.928;12.116;2023-02-22T04:14:12;98805.88;;;7.81;97.92
18509;BME280;9383;50.928;12.116;2023-02-22T04:16:39;98799.72;;;7.81;97.90
18509;BME280;9383;50.928;12.116;2023-02-22T04:19:06;98805.00;;;7.81;97.91
18509;BME280;9383;50.928;12.116;2023-02-22T04:21:32;98799.78;;;7.79;98.02
18509;BME280;9383;50.928;12.116;2023-02-22T04:23:59;98789.25;;;7.79;98.09
18509;BME280;9383;50.928;12.116;2023-02-22T04:26:26;98796.25;;;7.80;98.05
18509;BME280;9383;50.928;12.116;2023-02-22T04:28:52;98791.00;;;7.79;98.29
18509;BME280;9383;50.928;12.116;2023-02-22T04:31:19;98794.53;;;7.78;98.72
18509;BME280;9383;50.928;12.116;2023-02-22T04:33:45;98793.66;;;7.77;98.90
18509;BME280;9383;50.928;12.116;2023-02-22T04:36:12;98797.19;;;7.78;98.86
18509;BME280;9383;50.928;12.116;2023-02-22T04:38:41;98784.91;;;7.77;99.10
18509;BME280;9383;50.928;12.116;2023-02-22T04:41:08;98791.94;;;7.76;98.98
18509;BME280;9383;50.928;12.116;2023-02-22T04:43:34;98783.16;;;7.76;98.97
18509;BME280;9383;50.928;12.116;2023-02-22T04:46:01;98784.06;;;7.74;99.07
18509;BME280;9383;50.928;12.116;2023-02-22T04:48:27;98785.81;;;7.76;98.81
18509;BME280;9383;50.928;12.116;2023-02-22T04:50:54;98780.53;;;7.76;99.02
18509;BME280;9383;50.928;12.116;2023-02-22T04:53:21;98777.88;;;7.76;99.22
18509;BME280;9383;50.928;12.116;2023-02-22T04:55:48;98782.25;;;7.77;98.97
18509;BME280;9383;50.928;12.116;2023-02-22T04:58:14;98777.88;;;7.76;99.15
18509;BME280;9383;50.928;12.116;2023-02-22T05:00:40;98776.09;;;7.76;99.15
18509;BME280;9383;50.928;12.116;2023-02-22T05:03:07;98776.97;;;7.77;99.06
18509;BME280;9383;50.928;12.116;2023-02-22T05:05:34;98772.59;;;7.76;98.88
18509;BME280;9383;50.928;12.116;2023-02-22T05:08:00;98776.97;;;7.77;98.94
18509;BME280;9383;50.928;12.116;2023-02-22T05:10:27;98767.34;;;7.76;99.44
18509;BME280;9383;50.928;12.116;2023-02-22T05:12:54;98760.25;;;7.76;99.26
18509;BME280;9383;50.928;12.116;2023-02-22T05:15:21;98763.81;;;7.75;99.34
18509;BME280;9383;50.928;12.116;2023-02-22T05:17:50;98757.69;;;7.74;99.62
18509;BME280;9383;50.928;12.116;2023-02-22T05:20:29;98758.53;;;7.75;100.00
18509;BME280;9383;50.928;12.116;2023-02-22T05:22:57;98710.84;;;7.50;100.00
18509;BME280;9383;50.928;12.116;2023-02-22T05:25:26;98761.25;;;7.73;100.00
18509;BME280;9383;50.928;12.116;2023-02-22T05:27:55;98754.16;;;7.74;100.00
18509;BME280;9383;50.928;12.116;2023-02-22T05:30:26;98759.50;;;7.72;100.00
18509;BME280;9383;50.928;12.116;2023-02-22T05:32:53;98755.97;;;7.73;100.00
18509;BME280;9383;50.928;12.116;2023-02-22T05:35:21;98751.59;;;7.72;100.00
18509;BME280;9383;50.928;12.116;2023-02-22T05:37:48;98754.22;;;7.72;100.00
18509;BME280;9383;50.928;12.116;2023-02-22T05:40:21;98750.72;;;7.72;100.00
18509;BME280;9383;50.928;12.116;2023-02-22T05:42:49;98754.22;;;7.72;100.00
18509;BME280;9383;50.928;12.116;2023-02-22T05:45:18;98744.59;;;7.71;100.00
18509;BME280;9383;50.928;12.116;2023-02-22T05:47:46;98748.06;;;7.72;100.00
18509;BME280;9383;50.928;12.116;2023-02-22T05:50:13;98747.22;;;7.71;100.00
18509;BME280;9383;50.928;12.116;2023-02-22T05:52:41;98745.44;;;7.72;100.00
18509;BME280;9383;50.928;12.116;2023-02-22T05:55:09;98749.88;;;7.71;100.00
18509;BME280;9383;50.928;12.116;2023-02-22T05:57:36;98734.91;;;7.70;100.00
18509;BME280;9383;50.928;12.116;2023-02-22T06:00:04;98744.59;;;7.71;100.00
18509;BME280;9383;50.928;12.116;2023-02-22T06:02:32;98741.94;;;7.71;100.00
18509;BME280;9383;50.928;12.116;2023-02-22T06:04:59;98749.88;;;7.71;100.00
18509;BME280;9383;50.928;12.116;2023-02-22T06:07:26;98740.19;;;7.70;100.00
18509;BME280;9383;50.928;12.116;2023-02-22T06:09:52;98746.34;;;7.71;100.00
18509;BME280;9383;50.928;12.116;2023-02-22T06:12:19;98748.09;;;7.70;100.00
18509;BME280;9383;50.928;12.116;2023-02-22T06:14:45;98747.22;;;7.71;100.00
18509;BME280;9383;50.928;12.116;2023-02-22T06:17:14;98746.34;;;7.71;100.00
18509;BME280;9383;50.928;12.116;2023-02-22T06:19:42;98752.50;;;7.71;100.00
18509;BME280;9383;50.928;12.116;2023-02-22T06:22:16;98751.59;;;7.72;100.00
18509;BME280;9383;50.928;12.116;2023-02-22T06:24:43;98748.06;;;7.72;100.00
18509;BME280;9383;50.928;12.116;2023-02-22T06:27:10;98750.72;;;7.72;100.00
18509;BME280;9383;50.928;12.116;2023-02-22T06:29:37;98750.69;;;7.73;100.00
18509;BME280;9383;50.928;12.116;2023-02-22T06:32:03;98745.41;;;7.73;100.00
18509;BME280;9383;50.928;12.116;2023-02-22T06:34:30;98753.25;;;7.75;100.00
18509;BME280;9383;50.928;12.116;2023-02-22T06:36:57;98756.78;;;7.76;100.00
18509;BME280;9383;50.928;12.116;2023-02-22T06:39:23;98754.13;;;7.76;100.00
18509;BME280;9383;50.928;12.116;2023-02-22T06:41:50;98757.59;;;7.78;100.00
18509;BME280;9383;50.928;12.116;2023-02-22T06:44:17;98755.84;;;7.78;100.00
18509;BME280;9383;50.928;12.116;2023-02-22T06:46:48;98761.94;;;7.80;100.00
18509;BME280;9383;50.928;12.116;2023-02-22T06:49:18;98762.75;;;7.82;100.00
18509;BME280;9383;50.928;12.116;2023-02-22T06:51:46;98760.97;;;7.83;100.00
18509;BME280;9383;50.928;12.116;2023-02-22T06:54:13;98762.72;;;7.84;100.00
18509;BME280;9383;50.928;12.116;2023-02-22T06:56:39;98760.91;;;7.86;100.00
18509;BME280;9383;50.928;12.116;2023-02-22T06:59:06;98763.47;;;7.89;100.00
18509;BME280;9383;50.928;12.116;2023-02-22T07:01:33;98766.91;;;7.91;100.00
18509;BME280;9383;50.928;12.116;2023-02-22T07:04:00;98769.56;;;7.91;100.00
18509;BME280;9383;50.928;12.116;2023-02-22T07:06:27;98772.97;;;7.95;100.00
18509;BME280;9383;50.928;12.116;2023-02-22T07:08:54;98772.97;;;7.96;100.00
18509;BME280;9383;50.928;12.116;2023-02-22T07:11:20;98777.25;;;7.99;100.00
18509;BME280;9383;50.928;12.116;2023-02-22T07:13:47;98771.03;;;8.01;100.00
18509;BME280;9383;50.928;12.116;2023-02-22T07:16:13;98773.59;;;8.05;100.00
18509;BME280;9383;50.928;12.116;2023-02-22T07:18:39;98770.94;;;8.06;100.00
18509;BME280;9383;50.928;12.116;2023-02-22T07:21:06;98773.47;;;8.09;100.00
18509;BME280;9383;50.928;12.116;2023-02-22T07:23:33;98776.91;;;8.13;100.00
18509;BME280;9383;50.928;12.116;2023-02-22T07:26:01;98769.78;;;8.15;100.00
18509;BME280;9383;50.928;12.116;2023-02-22T07:28:28;98784.63;;;8.19;100.00
18509;BME280;9383;50.928;12.116;2023-02-22T07:30:54;98781.06;;;8.22;100.00
18509;BME280;9383;50.928;12.116;2023-02-22T07:33:21;98782.66;;;8.27;100.00
18509;BME280;9383;50.928;12.116;2023-02-22T07:35:49;98775.56;;;8.29;100.00
18509;BME280;9383;50.928;12.116;2023-02-22T07:38:17;98777.19;;;8.34;100.00
18509;BME280;9383;50.928;12.116;2023-02-22T07:40:44;98770.00;;;8.39;100.00
18509;BME280;9383;50.928;12.116;2023-02-22T07:43:23;98780.47;;;8.42;100.00
18509;BME280;9383;50.928;12.116;2023-02-22T07:45:54;98771.53;;;8.48;100.00
18509;BME280;9383;50.928;12.116;2023-02-22T07:48:22;98782.00;;;8.52;100.00
18509;BME280;9383;50.928;12.116;2023-02-22T07:50:49;98773.06;;;8.56;100.00
18509;BME280;9383;50.928;12.116;2023-02-22T07:53:22;98775.63;;;8.60;100.00
18509;BME280;9383;50.928;12.116;2023-02-22T07:55:49;98771.16;;;8.62;100.00
18509;BME280;9383;50.928;12.116;2023-02-22T07:58:19;98766.69;;;8.64;100.00
18509;BME280;9383;50.928;12.116;2023-02-22T08:00:46;98774.47;;;8.68;100.00
18509;BME280;9383;50.928;12.116;2023-02-22T08:03:18;98767.28;;;8.72;100.00
18509;BME280;9383;50.928;12.116;2023-02-22T08:05:50;98773.38;;;8.76;100.00
18509;BME280;9383;50.928;12.116;2023-02-22T08:08:18;98769.81;;;8.77;100.00
18509;BME280;9383;50.928;12.116;2023-02-22T08:10:45;98772.28;;;8.83;100.00
18509;BME280;9383;50.928;12.116;2023-02-22T08:13:13;98778.47;;;8.82;100.00
18509;BME280;9383;50.928;12.116;2023-02-22T08:15:40;98773.91;;;8.87;100.00
18509;BME280;9383;50.928;12.116;2023-02-22T08:18:11;98772.16;;;8.88;100.00
18509;BME280;9383;50.928;12.116;2023-02-22T08:20:39;98771.91;;;8.95;100.00
18509;BME280;9383;50.928;12.116;2023-02-22T08:23:07;98771.75;;;9.00;100.00
18509;BME280;9383;50.928;12.116;2023-02-22T08:25:34;98764.50;;;9.07;100.00
18509;BME280;9383;50.928;12.116;2023-02-22T08:28:07;98773.88;;;9.17;100.00
18509;BME280;9383;50.928;12.116;2023-02-22T08:30:35;98765.72;;;9.23;100.00
18509;BME280;9383;50.928;12.116;2023-02-22T08:33:02;98764.63;;;9.31;100.00
18509;BME280;9383;50.928;12.116;2023-02-22T08:35:30;98760.81;;;9.39;100.00
18509;BME280;9383;50.928;12.116;2023-02-22T08:38:05;98758.59;;;9.52;100.00
18509;BME280;9383;50.928;12.116;2023-02-22T08:40:36;98759.88;;;9.67;100.00
18509;BME280;9383;50.928;12.116;2023-02-22T08:43:03;98756.81;;;9.80;100.00
18509;BME280;9383;50.928;12.116;2023-02-22T08:45:30;98761.63;;;9.94;100.00
18509;BME280;9383;50.928;12.116;2023-02-22T08:47:58;98761.00;;;10.11;100.00
18509;BME280;9383;50.928;12.116;2023-02-22T08:50:30;98762.19;;;10.27;100.00
18509;BME280;9383;50.928;12.116;2023-02-22T08:53:00;98758.03;;;10.46;100.00
18509;BME280;9383;50.928;12.116;2023-02-22T08:55:30;98755.59;;;10.63;100.00
18509;BME280;9383;50.928;12.116;2023-02-22T08:57:58;98761.13;;;10.81;100.00
18509;BME280;9383;50.928;12.116;2023-02-22T09:00:26;98765.19;;;10.90;97.42
18509;BME280;9383;50.928;12.116;2023-02-22T09:02:54;98760.13;;;11.06;97.79
18509;BME280;9383;50.928;12.116;2023-02-22T09:05:21;98758.75;;;11.19;98.11
18509;BME280;9383;50.928;12.116;2023-02-22T09:07:47;98756.38;;;11.34;97.89
18509;BME280;9383;50.928;12.116;2023-02-22T09:10:19;98760.31;;;11.46;97.24
18509;BME280;9383;50.928;12.116;2023-02-22T09:12:45;98752.94;;;11.52;96.46
18509;BME280;9383;50.928;12.116;2023-02-22T09:15:13;98746.47;;;11.60;95.84
18509;BME280;9383;50.928;12.116;2023-02-22T09:17:40;98751.44;;;11.67;94.94
18509;BME280;9383;50.928;12.116;2023-02-22T09:20:08;98747.66;;;11.73;94.00
18509;BME280;9383;50.928;12.116;2023-02-22T09:22:35;98740.16;;;11.83;93.69
18509;BME280;9383;50.928;12.116;2023-02-22T09:25:02;98741.63;;;11.90;92.87
18509;BME280;9383;50.928;12.116;2023-02-22T09:27:28;98741.53;;;11.92;92.37
18509;BME280;9383;50.928;12.116;2023-02-22T09:29:55;98740.50;;;11.96;92.04
18509;BME280;9383;50.928;12.116;2023-02-22T09:32:25;98738.47;;;12.01;92.00
18509;BME280;9383;50.928;12.116;2023-02-22T09:34:53;98740.09;;;12.05;91.45
18509;BME280;9383;50.928;12.116;2023-02-22T09:37:21;98743.44;;;12.10;91.32
18509;BME280;9383;50.928;12.116;2023-02-22T09:39:47;98741.41;;;12.16;91.04
18509;BME280;9383;50.928;12.116;2023-02-22T09:42:26;98737.56;;;12.23;90.48
18509;BME280;9383;50.928;12.116;2023-02-22T09:45:13;98738.94;;;12.32;90.23
18509;BME280;9383;50.928;12.116;2023-02-22T09:47:44;98737.84;;;12.36;89.62
18509;BME280;9383;50.928;12.116;2023-02-22T09:50:20;98732.44;;;12.39;89.00
18509;BME280;9383;50.928;12.116;2023-02-22T09:52:57;98735.09;;;12.39;88.57
18509;BME280;9383;50.928;12.116;2023-02-22T09:55:37;98732.28;;;12.42;89.04
18509;BME280;9383;50.928;12.116;2023-02-22T09:58:26;98728.69;;;12.43;88.21
18509;BME280;9383;50.928;12.116;2023-02-22T10:01:44;98730.25;;;12.47;88.41
18509;BME280;9383;50.928;12.116;2023-02-22T10:06:26;98730.63;;;12.59;88.09
18509;BME280;9383;50.928;12.116;2023-02-22T10:08:57;98728.47;;;12.67;87.92
18509;BME280;9383;50.928;12.116;2023-02-22T10:11:34;98720.19;;;12.73;87.79
18509;BME280;9383;50.928;12.116;2023-02-22T10:14:33;98721.69;;;12.79;87.17
18509;BME280;9383;50.928;12.116;2023-02-22T10:25:01;98706.16;;;12.89;81.81
18509;BME280;9383;50.928;12.116;2023-02-22T10:27:43;98702.31;;;12.94;82.45
18509;BME280;9383;50.928;12.116;2023-02-22T10:30:29;98701.97;;;13.02;83.18
18509;BME280;9383;50.928;12.116;2023-02-22T10:33:19;98699.78;;;13.11;82.12
18509;BME280;9383;50.928;12.116;2023-02-22T10:35:47;98691.28;;;13.21;82.47
18509;BME280;9383;50.928;12.116;2023-02-22T10:38:23;98697.78;;;13.16;77.88
18509;BME280;9383;50.928;12.116;2023-02-22T10:40:55;98691.34;;;13.20;78.81
18509;BME280;9383;50.928;12.116;2023-02-22T10:43:25;98688.47;;;13.25;78.19
18509;BME280;9383;50.928;12.116;2023-02-22T10:45:57;98685.88;;;13.23;77.34
18509;BME280;9383;50.928;12.116;2023-02-22T10:48:28;98686.97;;;13.19;75.79
18509;BME280;9383;50.928;12.116;2023-02-22T10:51:00;98684.09;;;13.23;76.34
18509;BME280;9383;50.928;12.116;2023-02-22T10:53:29;98676.88;;;13.26;76.50
18509;BME280;9383;50.928;12.116;2023-02-22T11:04:10;98678.22;;;13.34;75.99
18509;BME280;9383;50.928;12.116;2023-02-22T11:06:39;98673.72;;;13.17;74.57
18509;BME280;9383;50.928;12.116;2023-02-22T11:09:07;98671.94;;;13.18;75.74
18509;BME280;9383;50.928;12.116;2023-02-22T11:11:39;98667.22;;;13.23;76.51
18509;BME280;9383;50.928;12.116;2023-02-22T11:14:06;98665.28;;;13.27;76.68
18509;BME280;9383;50.928;12.116;2023-02-22T11:16:42;98662.91;;;13.20;75.22
18509;BME280;9383;50.928;12.116;2023-02-22T11:19:23;98659.34;;;13.21;75.77
18509;BME280;9383;50.928;12.116;2023-02-22T11:21:56;98654.81;;;13.23;76.08
18509;BME280;9383;50.928;12.116;2023-02-22T11:24:25;98656.13;;;13.15;74.60
18509;BME280;9383;50.928;12.116;2023-02-22T11:26:55;98658.41;;;13.22;76.22
18509;BME280;9383;50.928;12.116;2023-02-22T11:29:28;98651.09;;;13.26;75.76
18509;BME280;9383;50.928;12.116;2023-02-22T11:32:01;98654.81;;;13.23;75.29
18509;BME280;9383;50.928;12.116;2023-02-22T11:34:37;98642.03;;;13.30;75.87
18509;BME280;9383;50.928;12.116;2023-02-22T11:37:22;98645.25;;;13.37;76.23
18509;BME280;9383;50.928;12.116;2023-02-22T11:40:05;98634.06;;;13.48;77.52
18509;BME280;9383;50.928;12.116;2023-02-22T11:42:32;98634.84;;;13.50;75.03
18509;BME280;9383;50.928;12.116;2023-02-22T11:45:16;98623.72;;;13.59;76.01
18509;BME280;9383;50.928;12.116;2023-02-22T11:50:31;98619.28;;;13.76;75.11
18509;BME280;9383;50.928;12.116;2023-02-22T11:58:48;98609.47;;;14.10;76.69
18509;BME280;9383;50.928;12.116;2023-02-22T12:01:33;98603.81;;;14.16;76.77
18509;BME280;9383;50.928;12.116;2023-02-22T12:04:26;98605.19;;;14.24;74.98
18509;BME280;9383;50.928;12.116;2023-02-22T12:13:02;98593.25;;;14.31;72.72
18509;BME280;9383;50.928;12.116;2023-02-22T12:15:43;98594.25;;;14.28;71.26
18509;BME280;9383;50.928;12.116;2023-02-22T12:18:26;98589.81;;;14.29;70.72
18509;BME280;9383;50.928;12.116;2023-02-22T12:21:02;98591.66;;;14.27;70.47
18509;BME280;9383;50.928;12.116;2023-02-22T12:24:33;98587.38;;;14.08;69.78
18509;BME280;9383;50.928;12.116;2023-02-22T12:27:00;98597.03;;;14.11;71.46
18509;BME280;9383;50.928;12.116;2023-02-22T12:34:59;98584.72;;;14.08;71.39
18509;BME280;9383;50.928;12.116;2023-02-22T12:43:26;98590.31;;;14.19;72.48
18509;BME280;9383;50.928;12.116;2023-02-22T12:46:15;98585.69;;;14.23;72.71
18509;BME280;9383;50.928;12.116;2023-02-22T12:48:51;98579.66;;;14.19;71.35
18509;BME280;9383;50.928;12.116;2023-02-22T12:51:27;98592.81;;;14.23;71.93
18509;BME280;9383;50.928;12.116;2023-02-22T12:56:41;98585.38;;;14.28;71.72
18509;BME280;9383;50.928;12.116;2023-02-22T12:59:40;98578.84;;;14.33;72.18
18509;BME280;9383;50.928;12.116;2023-02-22T13:02:37;98580.69;;;14.33;72.05
18509;BME280;9383;50.928;12.116;2023-02-22T13:05:15;98568.81;;;14.23;70.29
18509;BME280;9383;50.928;12.116;2023-02-22T13:08:12;98572.25;;;14.25;70.48
18509;BME280;9383;50.928;12.116;2023-02-22T13:16:35;98565.97;;;14.10;73.46
18509;BME280;9383;50.928;12.116;2023-02-22T13:27:48;98560.28;;;14.00;74.52
18509;BME280;9383;50.928;12.116;2023-02-22T13:36:12;98549.38;;;14.04;74.51
18509;BME280;9383;50.928;12.116;2023-02-22T13:39:06;98557.63;;;14.00;74.14
18509;BME280;9383;50.928;12.116;2023-02-22T13:53:11;98551.41;;;13.83;74.01
18509;BME280;9383;50.928;12.116;2023-02-22T13:55:44;98547.56;;;13.89;74.03
18509;BME280;9383;50.928;12.116;2023-02-22T13:58:13;98547.50;;;13.90;74.49
18509;BME280;9383;50.928;12.116;2023-02-22T14:00:51;98543.88;;;13.91;74.87
18509;BME280;9383;50.928;12.116;2023-02-22T14:05:51;98539.91;;;13.99;73.60
18509;BME280;9383;50.928;12.116;2023-02-22T14:10:56;98544.72;;;13.92;72.22
18509;BME280;9383;50.928;12.116;2023-02-22T14:13:25;98543.78;;;13.93;72.66
18509;BME280;9383;50.928;12.116;2023-02-22T14:18:36;98537.16;;;13.84;73.82
18509;BME280;9383;50.928;12.116;2023-02-22T14:21:16;98544.56;;;13.79;73.59
18509;BME280;9383;50.928;12.116;2023-02-22T14:23:46;98540.94;;;13.80;73.40
18509;BME280;9383;50.928;12.116;2023-02-22T14:31:18;98537.66;;;13.75;74.29
18509;BME280;9383;50.928;12.116;2023-02-22T14:39:24;98523.38;;;13.76;75.06
18509;BME280;9383;50.928;12.116;2023-02-22T14:41:58;98523.63;;;13.71;75.07
18509;BME280;9383;50.928;12.116;2023-02-22T14:50:04;98532.31;;;13.59;75.12
18509;BME280;9383;50.928;12.116;2023-02-22T14:52:35;98516.66;;;13.53;75.25
18509;BME280;9383;50.928;12.116;2023-02-22T14:55:20;98518.63;;;13.49;75.80
18509;BME280;9383;50.928;12.116;2023-02-22T14:58:17;98516.19;;;13.44;76.14
18509;BME280;9383;50.928;12.116;2023-02-22T15:00:49;98518.31;;;13.37;76.56
18509;BME280;9383;50.928;12.116;2023-02-22T15:03:33;98511.59;;;13.30;77.01
18509;BME280;9383;50.928;12.116;2023-02-22T15:06:13;98508.25;;;13.27;77.25
18509;BME280;9383;50.928;12.116;2023-02-22T15:08:41;98514.44;;;13.27;76.92
18509;BME280;9383;50.928;12.116;2023-02-22T15:11:40;98513.50;;;13.28;76.96
18509;BME280;9383;50.928;12.116;2023-02-22T15:14:16;98511.91;;;13.24;77.09
18509;BME280;9383;50.928;12.116;2023-02-22T15:16:49;98506.94;;;13.18;77.08
18509;BME280;9383;50.928;12.116;2023-02-22T15:19:30;98514.13;;;13.16;77.31
18509;BME280;9383;50.928;12.116;2023-02-22T15:22:00;98504.81;;;13.07;77.53
18509;BME280;9383;50.928;12.116;2023-02-22T15:24:29;98505.84;;;13.04;77.70
18509;BME280;9383;50.928;12.116;2023-02-22T15:27:03;98502.56;;;12.99;77.82
18509;BME280;9383;50.928;12.116;2023-02-22T15:29:35;98501.00;;;12.95;78.00
18509;BME280;9383;50.928;12.116;2023-02-22T15:32:16;98499.28;;;12.94;77.98
18509;BME280;9383;50.928;12.116;2023-02-22T15:34:44;98502.00;;;12.92;77.95
18509;BME280;9383;50.928;12.116;2023-02-22T15:37:29;98495.31;;;12.85;78.13